| time (UTC) | temp F | wind direction | speed knots | gust knots | rain 1hr in | rain 24hr in | rain mn in | humidity % | barometer mb |
| 20260902033040 | 62 | 0 | 0.0 | 0.0 | 0.00 | 0.00 | 0.00 | 78 | 1009.4 |
| 20260902031549 | 63 | 0 | 0.0 | 0.9 | 0.00 | 0.00 | 0.00 | 75 | 1009.4 |
| 20260902030042 | 64 | 0 | 0.0 | 0.0 | 0.00 | 0.00 | 0.00 | 74 | 1009.3 |
| 20260902024542 | 64 | 0 | 0.0 | 0.0 | 0.00 | 0.00 | 0.00 | 72 | 1009.2 |
| 20260902023040 | 65 | 0 | 0.0 | 0.0 | 0.00 | 0.00 | 0.00 | 74 | 1009.1 |
| 20260902021550 | 66 | 0 | 0.0 | 0.0 | 0.00 | 0.00 | 0.00 | 73 | 1009.2 |
| 20260902020057 | 67 | 0 | 0.0 | 0.0 | 0.00 | 0.00 | 0.00 | 68 | 1009.4 |
| 20260902014544 | 68 | 0 | 0.0 | 0.0 | 0.00 | 0.00 | 0.00 | 65 | 1009.8 |
| 20260902013048 | 69 | 294 | 0.0 | 0.9 | 0.00 | 0.00 | 0.00 | 63 | 1009.9 |
| 20260902011555 | 69 | 0 | 0.0 | 0.9 | 0.00 | 0.00 | 0.00 | 63 | 1009.8 |
| 20260902010107 | 69 | 297 | 0.0 | 1.7 | 0.00 | 0.00 | 0.00 | 62 | 1009.5 |
| 20260902004543 | 71 | 302 | 0.0 | 1.7 | 0.00 | 0.00 | 0.00 | 57 | 1009.5 |
| 20260902003053 | 73 | 0 | 0.9 | 1.7 | 0.00 | 0.00 | 0.00 | 51 | 1008.8 |
| 20260902001546 | 73 | 281 | 0.0 | 1.7 | 0.00 | 0.00 | 0.00 | 48 | 1008.7 |
| 20260902000050 | 73 | 264 | 1.7 | 5.2 | 0.00 | 0.00 | 0.00 | 49 | 1008.7 |
| 20260901234541 | 73 | 0 | 0.0 | 2.6 | 0.00 | 0.00 | 0.00 | 49 | 1009.1 |
| 20260901233059 | 74 | 278 | 0.0 | 2.6 | 0.00 | 0.00 | 0.00 | 50 | 1008.9 |
| 20260901231554 | 75 | 295 | 0.0 | 1.7 | 0.00 | 0.00 | 0.00 | 50 | 1009.0 |
| 20260901230041 | 76 | 309 | 0.0 | 1.7 | 0.00 | 0.00 | 0.00 | 49 | 1008.7 |
| 20260901224544 | 77 | 0 | 0.0 | 0.9 | 0.00 | 0.00 | 0.00 | 47 | 1009.1 |
| 20260901223052 | 77 | 0 | 0.0 | 0.9 | 0.00 | 0.00 | 0.00 | 50 | 1008.9 |
| 20260901221542 | 76 | 0 | 0.0 | 0.9 | 0.00 | 0.00 | 0.00 | 50 | 1008.3 |
| 20260901220043 | 76 | 0 | 0.0 | 0.0 | 0.00 | 0.00 | 0.00 | 52 | 1008.3 |
| 20260901214548 | 77 | 329 | 0.0 | 0.0 | 0.00 | 0.00 | 0.00 | 47 | 1008.6 |
| 20260901213048 | 75 | 328 | 0.9 | 2.6 | 0.00 | 0.00 | 0.00 | 46 | 1008.7 |
| 20260901211542 | 74 | 44 | 0.0 | 0.9 | 0.00 | 0.00 | 0.00 | 51 | 1008.9 |
| 20260901210042 | 73 | 0 | 0.0 | 3.5 | 0.00 | 0.00 | 0.00 | 50 | 1009.0 |
| 20260901204549 | 73 | 0 | 0.0 | 0.9 | 0.00 | 0.00 | 0.00 | 53 | 1009.1 |
| 20260901203044 | 73 | 61 | 0.0 | 2.6 | 0.00 | 0.00 | 0.00 | 51 | 1009.2 |
| 20260901201540 | 72 | 0 | 0.0 | 1.7 | 0.00 | 0.00 | 0.00 | 54 | 1009.2 |
| 20260901200046 | 70 | 22 | 0.9 | 4.3 | 0.00 | 0.00 | 0.00 | 58 | 1008.8 |
| 20260901194558 | 70 | 0 | 0.0 | 0.9 | 0.00 | 0.00 | 0.00 | 59 | 1009.8 |
| 20260901193051 | 70 | 0 | 0.0 | 2.6 | 0.00 | 0.00 | 0.00 | 55 | 1010.0 |
| 20260901191543 | 69 | 46 | 0.0 | 3.5 | 0.00 | 0.00 | 0.00 | 57 | 1010.2 |
| 20260901190047 | 69 | 49 | 0.9 | 4.3 | 0.00 | 0.00 | 0.00 | 55 | 1010.2 |
| 20260901184549 | 68 | 53 | 1.7 | 5.2 | 0.00 | 0.00 | 0.00 | 56 | 1010.5 |
| 20260901183046 | 67 | 63 | 1.7 | 5.2 | 0.00 | 0.00 | 0.00 | 59 | 1011.0 |
| 20260901181543 | 66 | 21 | 2.6 | 5.2 | 0.00 | 0.00 | 0.00 | 61 | 1011.3 |
| 20260901180044 | 65 | 72 | 3.5 | 6.1 | 0.00 | 0.00 | 0.00 | 63 | 1011.4 |
| 20260901174600 | 64 | 33 | 2.6 | 4.3 | 0.00 | 0.00 | 0.00 | 64 | 1011.7 |
| 20260901173041 | 63 | 43 | 2.6 | 6.1 | 0.00 | 0.00 | 0.00 | 69 | 1011.9 |
| 20260901171551 | 62 | 45 | 0.9 | 3.5 | 0.00 | 0.00 | 0.00 | 69 | 1011.8 |
| 20260901170129 | 62 | 49 | 0.0 | 3.5 | 0.00 | 0.00 | 0.00 | 72 | 1012.2 |
| 20260901164541 | 61 | 30 | 0.9 | 3.5 | 0.00 | 0.00 | 0.00 | 71 | 1012.3 |
| 20260901163047 | 59 | 49 | 0.9 | 3.5 | 0.00 | 0.00 | 0.00 | 74 | 1012.5 |
| 20260901161555 | 60 | 51 | 0.0 | 4.3 | 0.00 | 0.00 | 0.00 | 73 | 1012.5 |
| 20260901160048 | 59 | 139 | 0.0 | 0.9 | 0.00 | 0.00 | 0.00 | 75 | 1012.7 |
| 20260901154542 | 56 | 0 | 0.0 | 0.0 | 0.00 | 0.00 | 0.00 | 81 | 1012.9 |
| 20260901153100 | 54 | 0 | 0.0 | 0.0 | 0.00 | 0.00 | 0.00 | 85 | 1012.9 |
| 20260901151547 | 52 | 0 | 0.0 | 0.0 | 0.00 | 0.00 | 0.00 | 89 | 1013.0 |
| 20260901150043 | 50 | 0 | 0.0 | 0.9 | 0.00 | 0.00 | 0.00 | 89 | 1013.1 |
| 20260901144548 | 49 | 0 | 0.0 | 0.0 | 0.00 | 0.00 | 0.00 | 92 | 1013.0 |
| 20260901143051 | 47 | 0 | 0.0 | 0.0 | 0.00 | 0.00 | 0.00 | 93 | 1013.1 |
| 20260901141544 | 45 | 0 | 0.0 | 0.0 | 0.00 | 0.00 | 0.00 | 93 | 1013.1 |
| 20260901140110 | 43 | 0 | 0.0 | 0.0 | 0.00 | 0.00 | 0.00 | 92 | 1013.0 |
| 20260901134544 | 41 | 0 | 0.0 | 0.0 | 0.00 | 0.00 | 0.00 | 92 | 1013.0 |
| 20260901133043 | 41 | 0 | 0.0 | 0.0 | 0.00 | 0.00 | 0.00 | 91 | 1012.9 |
| 20260901131555 | 41 | 0 | 0.0 | 0.0 | 0.00 | 0.00 | 0.00 | 91 | 1012.9 |
| 20260901130057 | 41 | 0 | 0.0 | 0.0 | 0.00 | 0.00 | 0.00 | 91 | 1012.9 |
| 20260901124543 | 41 | 0 | 0.0 | 0.0 | 0.00 | 0.00 | 0.00 | 91 | 1013.1 |
| 20260901123044 | 42 | 0 | 0.0 | 0.0 | 0.00 | 0.00 | 0.00 | 91 | 1013.0 |
| 20260901121545 | 42 | 0 | 0.0 | 0.0 | 0.00 | 0.00 | 0.00 | 90 | 1012.9 |
| 20260901120048 | 43 | 0 | 0.0 | 0.0 | 0.00 | 0.00 | 0.00 | 90 | 1012.8 |
| 20260901114546 | 43 | 0 | 0.0 | 0.0 | 0.00 | 0.00 | 0.00 | 89 | 1012.9 |
| 20260901113043 | 43 | 0 | 0.0 | 0.0 | 0.00 | 0.00 | 0.00 | 90 | 1012.8 |
| 20260901111542 | 44 | 0 | 0.0 | 0.0 | 0.00 | 0.00 | 0.00 | 90 | 1012.9 |
| 20260901110050 | 43 | 0 | 0.0 | 0.0 | 0.00 | 0.00 | 0.00 | 89 | 1012.8 |
| 20260901104546 | 44 | 0 | 0.0 | 0.0 | 0.00 | 0.00 | 0.00 | 89 | 1012.8 |
| 20260901103044 | 44 | 0 | 0.0 | 0.0 | 0.00 | 0.00 | 0.00 | 88 | 1012.8 |
| 20260901101544 | 44 | 0 | 0.0 | 0.0 | 0.00 | 0.00 | 0.00 | 88 | 1012.7 |
| 20260901100049 | 44 | 0 | 0.0 | 0.0 | 0.00 | 0.00 | 0.00 | 89 | 1012.7 |
| 20260901094600 | 44 | 0 | 0.0 | 0.0 | 0.00 | 0.00 | 0.00 | 89 | 1012.7 |
| 20260901093050 | 44 | 0 | 0.0 | 0.0 | 0.00 | 0.00 | 0.00 | 88 | 1012.7 |
| 20260901091544 | 44 | 0 | 0.0 | 0.0 | 0.00 | 0.00 | 0.00 | 87 | 1012.7 |
| 20260901090044 | 45 | 0 | 0.0 | 0.0 | 0.00 | 0.00 | 0.00 | 88 | 1012.8 |
| 20260901084606 | 45 | 0 | 0.0 | 0.0 | 0.00 | 0.00 | 0.00 | 88 | 1012.9 |
| 20260901083051 | 45 | 0 | 0.0 | 0.0 | 0.00 | 0.00 | 0.00 | 87 | 1012.8 |
| 20260901081546 | 45 | 0 | 0.0 | 0.0 | 0.00 | 0.00 | 0.00 | 87 | 1012.7 |
| 20260901080041 | 45 | 0 | 0.0 | 0.0 | 0.00 | 0.00 | 0.00 | 85 | 1012.7 |
| 20260901074550 | 46 | 0 | 0.0 | 0.0 | 0.00 | 0.00 | 0.00 | 84 | 1012.5 |
| 20260901073048 | 47 | 0 | 0.0 | 0.0 | 0.00 | 0.00 | 0.00 | 85 | 1012.5 |
| 20260901071542 | 47 | 0 | 0.0 | 1.7 | 0.00 | 0.00 | 0.00 | 85 | 1012.7 |
| 20260901070048 | 47 | 0 | 0.0 | 0.0 | 0.00 | 0.00 | 0.00 | 83 | 1012.8 |
| 20260901064544 | 48 | 0 | 0.0 | 0.0 | 0.00 | 0.00 | 0.00 | 83 | 1012.8 |
| 20260901063042 | 48 | 0 | 0.0 | 0.0 | 0.00 | 0.00 | 0.00 | 84 | 1012.6 |
| 20260901061554 | 48 | 0 | 0.0 | 0.0 | 0.00 | 0.00 | 0.00 | 84 | 1012.8 |
| 20260901060051 | 49 | 0 | 0.0 | 0.0 | 0.00 | 0.00 | 0.00 | 83 | 1012.8 |
| 20260901054543 | 50 | 0 | 0.0 | 0.0 | 0.00 | 0.00 | 0.00 | 83 | 1013.0 |
| 20260901053059 | 50 | 0 | 0.0 | 0.0 | 0.00 | 0.00 | 0.00 | 81 | 1013.1 |
| 20260901051549 | 51 | 0 | 0.0 | 0.0 | 0.00 | 0.00 | 0.00 | 79 | 1013.0 |
| 20260901050049 | 52 | 0 | 0.0 | 0.0 | 0.00 | 0.00 | 0.00 | 80 | 1013.1 |
| 20260901044542 | 52 | 0 | 0.0 | 0.9 | 0.00 | 0.00 | 0.00 | 76 | 1013.1 |
| 20260901043042 | 53 | 0 | 0.0 | 0.0 | 0.00 | 0.00 | 0.00 | 76 | 1013.3 |
| 20260901041542 | 54 | 0 | 0.0 | 0.0 | 0.00 | 0.00 | 0.00 | 78 | 1013.2 |
| 20260901040048 | 55 | 0 | 0.0 | 0.0 | 0.00 | 0.00 | 0.00 | 76 | 1013.2 |
| 20260901034542 | 56 | 0 | 0.0 | 0.0 | 0.00 | 0.00 | 0.00 | 74 | 1013.1 |